sensor_id;sensor_type;location;lat;lon;timestamp;P1;durP1;ratioP1;P2;durP2;ratioP2
65315;SDS011;51920;53.952;10.292;2023-04-03T00:01:18;5.00;;;2.60;;
65315;SDS011;51920;53.952;10.292;2023-04-03T00:03:47;5.00;;;2.53;;
65315;SDS011;51920;53.952;10.292;2023-04-03T00:06:14;4.88;;;2.58;;
65315;SDS011;51920;53.952;10.292;2023-04-03T00:08:41;4.28;;;2.80;;
65315;SDS011;51920;53.952;10.292;2023-04-03T00:11:08;3.92;;;2.70;;
65315;SDS011;51920;53.952;10.292;2023-04-03T00:13:36;4.90;;;2.88;;
65315;SDS011;51920;53.952;10.292;2023-04-03T00:16:07;3.70;;;2.50;;
65315;SDS011;51920;53.952;10.292;2023-04-03T00:18:37;5.10;;;2.58;;
65315;SDS011;51920;53.952;10.292;2023-04-03T00:21:05;3.47;;;2.35;;
65315;SDS011;51920;53.952;10.292;2023-04-03T00:23:37;3.50;;;2.13;;
65315;SDS011;51920;53.952;10.292;2023-04-03T00:28:39;6.47;;;2.33;;
65315;SDS011;51920;53.952;10.292;2023-04-03T00:31:06;7.38;;;3.85;;
65315;SDS011;51920;53.952;10.292;2023-04-03T00:33:34;6.03;;;3.47;;
65315;SDS011;51920;53.952;10.292;2023-04-03T00:36:05;7.07;;;3.40;;
65315;SDS011;51920;53.952;10.292;2023-04-03T00:38:33;4.45;;;3.28;;
65315;SDS011;51920;53.952;10.292;2023-04-03T00:40:59;6.00;;;4.00;;
65315;SDS011;51920;53.952;10.292;2023-04-03T00:43:26;5.53;;;3.83;;
65315;SDS011;51920;53.952;10.292;2023-04-03T00:45:55;6.85;;;2.70;;
65315;SDS011;51920;53.952;10.292;2023-04-03T00:48:25;4.68;;;2.30;;
65315;SDS011;51920;53.952;10.292;2023-04-03T00:50:57;4.65;;;2.60;;
65315;SDS011;51920;53.952;10.292;2023-04-03T00:53:29;2.70;;;1.90;;
65315;SDS011;51920;53.952;10.292;2023-04-03T00:55:58;3.08;;;1.75;;
65315;SDS011;51920;53.952;10.292;2023-04-03T00:58:28;2.58;;;2.00;;
65315;SDS011;51920;53.952;10.292;2023-04-03T01:01:00;4.78;;;2.15;;
65315;SDS011;51920;53.952;10.292;2023-04-03T01:03:31;3.97;;;2.42;;
65315;SDS011;51920;53.952;10.292;2023-04-03T01:06:00;5.53;;;2.23;;
65315;SDS011;51920;53.952;10.292;2023-04-03T01:08:27;5.60;;;2.50;;
65315;SDS011;51920;53.952;10.292;2023-04-03T01:10:55;4.68;;;2.25;;
65315;SDS011;51920;53.952;10.292;2023-04-03T01:13:30;4.72;;;2.97;;
65315;SDS011;51920;53.952;10.292;2023-04-03T01:16:02;4.32;;;2.88;;
65315;SDS011;51920;53.952;10.292;2023-04-03T01:18:30;4.30;;;3.07;;
65315;SDS011;51920;53.952;10.292;2023-04-03T01:26:06;3.90;;;3.00;;
65315;SDS011;51920;53.952;10.292;2023-04-03T01:28:33;5.18;;;2.88;;
65315;SDS011;51920;53.952;10.292;2023-04-03T01:33:38;4.35;;;3.00;;
65315;SDS011;51920;53.952;10.292;2023-04-03T01:36:06;7.72;;;2.90;;
65315;SDS011;51920;53.952;10.292;2023-04-03T01:38:33;4.32;;;2.72;;
65315;SDS011;51920;53.952;10.292;2023-04-03T01:41:00;4.40;;;2.80;;
65315;SDS011;51920;53.952;10.292;2023-04-03T01:43:27;4.43;;;2.77;;
65315;SDS011;51920;53.952;10.292;2023-04-03T01:45:54;4.53;;;2.50;;
65315;SDS011;51920;53.952;10.292;2023-04-03T01:48:21;5.72;;;2.90;;
65315;SDS011;51920;53.952;10.292;2023-04-03T01:50:48;5.38;;;2.90;;
65315;SDS011;51920;53.952;10.292;2023-04-03T01:53:14;5.00;;;2.88;;
65315;SDS011;51920;53.952;10.292;2023-04-03T01:55:41;4.00;;;2.50;;
65315;SDS011;51920;53.952;10.292;2023-04-03T01:58:07;5.30;;;2.58;;
65315;SDS011;51920;53.952;10.292;2023-04-03T02:00:34;5.22;;;2.78;;
65315;SDS011;51920;53.952;10.292;2023-04-03T02:03:02;4.30;;;2.28;;
65315;SDS011;51920;53.952;10.292;2023-04-03T02:05:29;4.88;;;2.50;;
65315;SDS011;51920;53.952;10.292;2023-04-03T02:07:56;6.43;;;2.20;;
65315;SDS011;51920;53.952;10.292;2023-04-03T02:10:22;3.22;;;1.90;;
65315;SDS011;51920;53.952;10.292;2023-04-03T02:12:49;3.95;;;2.00;;
65315;SDS011;51920;53.952;10.292;2023-04-03T02:15:16;3.95;;;2.15;;
65315;SDS011;51920;53.952;10.292;2023-04-03T02:17:43;4.47;;;2.50;;
65315;SDS011;51920;53.952;10.292;2023-04-03T02:20:10;3.57;;;2.20;;
65315;SDS011;51920;53.952;10.292;2023-04-03T02:22:37;3.95;;;2.20;;
65315;SDS011;51920;53.952;10.292;2023-04-03T02:25:04;3.95;;;2.50;;
65315;SDS011;51920;53.952;10.292;2023-04-03T02:27:31;6.22;;;2.50;;
65315;SDS011;51920;53.952;10.292;2023-04-03T02:29:58;5.63;;;2.80;;
65315;SDS011;51920;53.952;10.292;2023-04-03T02:32:24;4.90;;;2.00;;
65315;SDS011;51920;53.952;10.292;2023-04-03T02:34:51;3.67;;;2.10;;
65315;SDS011;51920;53.952;10.292;2023-04-03T02:37:17;4.82;;;1.92;;
65315;SDS011;51920;53.952;10.292;2023-04-03T02:39:45;4.88;;;2.10;;
65315;SDS011;51920;53.952;10.292;2023-04-03T02:42:12;6.65;;;2.25;;
65315;SDS011;51920;53.952;10.292;2023-04-03T02:44:39;4.43;;;2.10;;
65315;SDS011;51920;53.952;10.292;2023-04-03T02:47:05;3.58;;;2.30;;
65315;SDS011;51920;53.952;10.292;2023-04-03T02:49:32;4.60;;;2.75;;
65315;SDS011;51920;53.952;10.292;2023-04-03T02:51:58;4.50;;;2.33;;
65315;SDS011;51920;53.952;10.292;2023-04-03T02:54:25;4.00;;;2.60;;
65315;SDS011;51920;53.952;10.292;2023-04-03T02:56:57;4.10;;;2.60;;
65315;SDS011;51920;53.952;10.292;2023-04-03T02:59:24;4.97;;;2.13;;
65315;SDS011;51920;53.952;10.292;2023-04-03T03:01:51;5.20;;;2.58;;
65315;SDS011;51920;53.952;10.292;2023-04-03T03:04:17;3.55;;;2.10;;
65315;SDS011;51920;53.952;10.292;2023-04-03T03:06:44;3.50;;;2.28;;
65315;SDS011;51920;53.952;10.292;2023-04-03T03:09:11;5.77;;;2.20;;
65315;SDS011;51920;53.952;10.292;2023-04-03T03:11:38;6.55;;;2.25;;
65315;SDS011;51920;53.952;10.292;2023-04-03T03:14:05;5.90;;;2.10;;
65315;SDS011;51920;53.952;10.292;2023-04-03T03:16:32;4.00;;;2.25;;
65315;SDS011;51920;53.952;10.292;2023-04-03T03:18:59;3.92;;;2.22;;
65315;SDS011;51920;53.952;10.292;2023-04-03T03:21:26;3.30;;;2.00;;
65315;SDS011;51920;53.952;10.292;2023-04-03T03:23:52;5.13;;;2.15;;
65315;SDS011;51920;53.952;10.292;2023-04-03T03:26:19;3.90;;;2.00;;
65315;SDS011;51920;53.952;10.292;2023-04-03T03:28:45;5.18;;;2.10;;
65315;SDS011;51920;53.952;10.292;2023-04-03T03:31:12;6.50;;;2.60;;
65315;SDS011;51920;53.952;10.292;2023-04-03T03:33:39;5.67;;;2.23;;
65315;SDS011;51920;53.952;10.292;2023-04-03T03:36:06;4.13;;;2.20;;
65315;SDS011;51920;53.952;10.292;2023-04-03T03:38:34;3.95;;;2.15;;
65315;SDS011;51920;53.952;10.292;2023-04-03T03:41:01;3.88;;;2.00;;
65315;SDS011;51920;53.952;10.292;2023-04-03T03:43:30;4.25;;;2.20;;
65315;SDS011;51920;53.952;10.292;2023-04-03T03:45:56;3.63;;;2.00;;
65315;SDS011;51920;53.952;10.292;2023-04-03T03:48:24;5.15;;;2.20;;
65315;SDS011;51920;53.952;10.292;2023-04-03T03:50:51;5.38;;;2.80;;
65315;SDS011;51920;53.952;10.292;2023-04-03T03:53:21;4.50;;;2.60;;
65315;SDS011;51920;53.952;10.292;2023-04-03T03:55:51;7.13;;;3.35;;
65315;SDS011;51920;53.952;10.292;2023-04-03T03:58:20;7.43;;;3.57;;
65315;SDS011;51920;53.952;10.292;2023-04-03T04:00:46;18.00;;;8.05;;
65315;SDS011;51920;53.952;10.292;2023-04-03T04:03:13;40.38;;;17.05;;
65315;SDS011;51920;53.952;10.292;2023-04-03T04:05:41;26.70;;;12.48;;
65315;SDS011;51920;53.952;10.292;2023-04-03T04:08:08;16.98;;;8.80;;
65315;SDS011;51920;53.952;10.292;2023-04-03T04:10:34;16.93;;;7.33;;
65315;SDS011;51920;53.952;10.292;2023-04-03T04:13:04;15.10;;;6.28;;
65315;SDS011;51920;53.952;10.292;2023-04-03T04:15:31;10.05;;;5.53;;
65315;SDS011;51920;53.952;10.292;2023-04-03T04:17:57;11.20;;;6.50;;
65315;SDS011;51920;53.952;10.292;2023-04-03T04:20:24;14.00;;;7.07;;
65315;SDS011;51920;53.952;10.292;2023-04-03T04:22:52;11.27;;;6.57;;
65315;SDS011;51920;53.952;10.292;2023-04-03T04:25:20;8.48;;;4.55;;
65315;SDS011;51920;53.952;10.292;2023-04-03T04:27:46;9.27;;;4.20;;
65315;SDS011;51920;53.952;10.292;2023-04-03T04:30:14;9.60;;;4.13;;
65315;SDS011;51920;53.952;10.292;2023-04-03T04:32:42;12.38;;;5.63;;
65315;SDS011;51920;53.952;10.292;2023-04-03T04:35:09;14.17;;;4.50;;
65315;SDS011;51920;53.952;10.292;2023-04-03T04:37:39;9.40;;;4.63;;
65315;SDS011;51920;53.952;10.292;2023-04-03T04:40:07;8.82;;;4.70;;
65315;SDS011;51920;53.952;10.292;2023-04-03T04:42:34;8.07;;;3.67;;
65315;SDS011;51920;53.952;10.292;2023-04-03T04:45:00;6.47;;;3.60;;
65315;SDS011;51920;53.952;10.292;2023-04-03T04:47:28;9.97;;;5.10;;
65315;SDS011;51920;53.952;10.292;2023-04-03T04:49:55;6.70;;;3.33;;
65315;SDS011;51920;53.952;10.292;2023-04-03T04:52:22;5.63;;;3.28;;
65315;SDS011;51920;53.952;10.292;2023-04-03T04:54:49;6.03;;;2.70;;
65315;SDS011;51920;53.952;10.292;2023-04-03T04:57:16;6.07;;;3.03;;
65315;SDS011;51920;53.952;10.292;2023-04-03T04:59:43;8.70;;;3.10;;
65315;SDS011;51920;53.952;10.292;2023-04-03T05:02:10;8.05;;;2.70;;
65315;SDS011;51920;53.952;10.292;2023-04-03T05:04:39;5.40;;;3.10;;
65315;SDS011;51920;53.952;10.292;2023-04-03T05:07:11;8.38;;;3.30;;
65315;SDS011;51920;53.952;10.292;2023-04-03T05:09:38;7.25;;;4.15;;
65315;SDS011;51920;53.952;10.292;2023-04-03T05:12:08;7.33;;;3.70;;
65315;SDS011;51920;53.952;10.292;2023-04-03T05:14:40;5.78;;;3.30;;
65315;SDS011;51920;53.952;10.292;2023-04-03T05:17:08;6.50;;;3.80;;
65315;SDS011;51920;53.952;10.292;2023-04-03T05:19:38;5.68;;;2.97;;
65315;SDS011;51920;53.952;10.292;2023-04-03T05:22:07;5.65;;;3.20;;
65315;SDS011;51920;53.952;10.292;2023-04-03T05:24:34;5.17;;;3.27;;
65315;SDS011;51920;53.952;10.292;2023-04-03T05:27:02;6.47;;;3.30;;
65315;SDS011;51920;53.952;10.292;2023-04-03T05:29:30;5.57;;;3.50;;
65315;SDS011;51920;53.952;10.292;2023-04-03T05:31:59;6.85;;;3.70;;
65315;SDS011;51920;53.952;10.292;2023-04-03T05:34:26;8.95;;;3.80;;
65315;SDS011;51920;53.952;10.292;2023-04-03T05:36:54;7.60;;;3.67;;
65315;SDS011;51920;53.952;10.292;2023-04-03T05:39:21;9.40;;;3.78;;
65315;SDS011;51920;53.952;10.292;2023-04-03T05:41:49;7.68;;;4.03;;
65315;SDS011;51920;53.952;10.292;2023-04-03T05:44:16;8.32;;;4.72;;
65315;SDS011;51920;53.952;10.292;2023-04-03T05:46:47;8.57;;;5.13;;
65315;SDS011;51920;53.952;10.292;2023-04-03T05:49:14;9.73;;;5.20;;
65315;SDS011;51920;53.952;10.292;2023-04-03T05:51:40;10.52;;;4.38;;
65315;SDS011;51920;53.952;10.292;2023-04-03T05:54:28;8.55;;;4.80;;
65315;SDS011;51920;53.952;10.292;2023-04-03T05:57:09;8.18;;;4.30;;
65315;SDS011;51920;53.952;10.292;2023-04-03T05:59:36;13.63;;;7.63;;
65315;SDS011;51920;53.952;10.292;2023-04-03T06:02:02;24.87;;;10.20;;
65315;SDS011;51920;53.952;10.292;2023-04-03T06:04:29;19.55;;;9.38;;
65315;SDS011;51920;53.952;10.292;2023-04-03T06:06:56;21.05;;;9.65;;
65315;SDS011;51920;53.952;10.292;2023-04-03T06:09:25;26.55;;;11.45;;
65315;SDS011;51920;53.952;10.292;2023-04-03T06:11:55;16.23;;;8.13;;
65315;SDS011;51920;53.952;10.292;2023-04-03T06:14:25;14.73;;;6.97;;
65315;SDS011;51920;53.952;10.292;2023-04-03T06:16:52;13.95;;;7.32;;
65315;SDS011;51920;53.952;10.292;2023-04-03T06:19:20;12.13;;;5.47;;
65315;SDS011;51920;53.952;10.292;2023-04-03T06:21:51;9.32;;;5.45;;
65315;SDS011;51920;53.952;10.292;2023-04-03T06:24:18;10.43;;;5.15;;
65315;SDS011;51920;53.952;10.292;2023-04-03T06:26:46;8.43;;;4.20;;
65315;SDS011;51920;53.952;10.292;2023-04-03T06:29:13;8.18;;;4.28;;
65315;SDS011;51920;53.952;10.292;2023-04-03T06:31:40;10.07;;;4.88;;
65315;SDS011;51920;53.952;10.292;2023-04-03T06:34:07;8.82;;;4.50;;
65315;SDS011;51920;53.952;10.292;2023-04-03T06:36:34;8.07;;;3.78;;
65315;SDS011;51920;53.952;10.292;2023-04-03T06:39:02;5.77;;;3.70;;
65315;SDS011;51920;53.952;10.292;2023-04-03T06:41:30;6.95;;;3.63;;
65315;SDS011;51920;53.952;10.292;2023-04-03T06:43:57;6.53;;;3.72;;
65315;SDS011;51920;53.952;10.292;2023-04-03T06:46:25;4.90;;;3.10;;
65315;SDS011;51920;53.952;10.292;2023-04-03T06:48:53;5.03;;;3.25;;
65315;SDS011;51920;53.952;10.292;2023-04-03T06:53:52;6.07;;;2.72;;
65315;SDS011;51920;53.952;10.292;2023-04-03T06:56:20;5.07;;;2.90;;
65315;SDS011;51920;53.952;10.292;2023-04-03T06:58:47;6.32;;;2.97;;
65315;SDS011;51920;53.952;10.292;2023-04-03T07:01:15;5.75;;;2.78;;
65315;SDS011;51920;53.952;10.292;2023-04-03T07:03:45;7.77;;;3.10;;
65315;SDS011;51920;53.952;10.292;2023-04-03T07:06:15;6.05;;;2.80;;
65315;SDS011;51920;53.952;10.292;2023-04-03T07:08:43;5.30;;;2.72;;
65315;SDS011;51920;53.952;10.292;2023-04-03T07:11:11;8.30;;;3.03;;
65315;SDS011;51920;53.952;10.292;2023-04-03T07:13:39;3.95;;;2.78;;
65315;SDS011;51920;53.952;10.292;2023-04-03T07:16:06;5.93;;;2.30;;
65315;SDS011;51920;53.952;10.292;2023-04-03T07:18:34;2.95;;;2.10;;
65315;SDS011;51920;53.952;10.292;2023-04-03T07:21:01;4.05;;;2.20;;
65315;SDS011;51920;53.952;10.292;2023-04-03T07:23:29;6.05;;;2.60;;
65315;SDS011;51920;53.952;10.292;2023-04-03T07:25:55;5.68;;;2.50;;
65315;SDS011;51920;53.952;10.292;2023-04-03T07:28:23;4.07;;;2.57;;
65315;SDS011;51920;53.952;10.292;2023-04-03T07:30:53;4.50;;;2.53;;
65315;SDS011;51920;53.952;10.292;2023-04-03T07:33:27;5.90;;;2.28;;
65315;SDS011;51920;53.952;10.292;2023-04-03T07:35:54;4.82;;;2.05;;
65315;SDS011;51920;53.952;10.292;2023-04-03T07:38:21;7.72;;;2.40;;
65315;SDS011;51920;53.952;10.292;2023-04-03T07:40:49;4.57;;;2.10;;
65315;SDS011;51920;53.952;10.292;2023-04-03T07:43:17;4.82;;;1.90;;
65315;SDS011;51920;53.952;10.292;2023-04-03T07:45:44;3.60;;;1.63;;
65315;SDS011;51920;53.952;10.292;2023-04-03T07:48:12;4.13;;;1.70;;
65315;SDS011;51920;53.952;10.292;2023-04-03T07:50:40;4.82;;;1.77;;
65315;SDS011;51920;53.952;10.292;2023-04-03T07:53:07;3.73;;;1.60;;
65315;SDS011;51920;53.952;10.292;2023-04-03T07:55:34;4.40;;;1.40;;
65315;SDS011;51920;53.952;10.292;2023-04-03T07:58:03;6.10;;;2.30;;
65315;SDS011;51920;53.952;10.292;2023-04-03T08:00:31;3.05;;;1.40;;
65315;SDS011;51920;53.952;10.292;2023-04-03T08:02:57;3.45;;;1.55;;
65315;SDS011;51920;53.952;10.292;2023-04-03T08:05:24;3.23;;;1.40;;
65315;SDS011;51920;53.952;10.292;2023-04-03T08:07:51;4.35;;;1.60;;
65315;SDS011;51920;53.952;10.292;2023-04-03T08:10:18;4.35;;;1.50;;
65315;SDS011;51920;53.952;10.292;2023-04-03T08:12:46;2.58;;;1.30;;
65315;SDS011;51920;53.952;10.292;2023-04-03T08:15:13;2.45;;;1.42;;
65315;SDS011;51920;53.952;10.292;2023-04-03T08:17:40;2.53;;;1.40;;
65315;SDS011;51920;53.952;10.292;2023-04-03T08:20:07;4.72;;;1.25;;
65315;SDS011;51920;53.952;10.292;2023-04-03T08:22:36;3.17;;;1.48;;
65315;SDS011;51920;53.952;10.292;2023-04-03T08:25:03;3.83;;;1.50;;
65315;SDS011;51920;53.952;10.292;2023-04-03T08:27:30;4.72;;;1.88;;
65315;SDS011;51920;53.952;10.292;2023-04-03T08:29:56;4.97;;;1.50;;
65315;SDS011;51920;53.952;10.292;2023-04-03T08:32:23;2.97;;;1.50;;
65315;SDS011;51920;53.952;10.292;2023-04-03T08:34:50;3.58;;;1.48;;
65315;SDS011;51920;53.952;10.292;2023-04-03T08:37:17;4.75;;;1.45;;
65315;SDS011;51920;53.952;10.292;2023-04-03T08:39:44;3.90;;;1.60;;
65315;SDS011;51920;53.952;10.292;2023-04-03T08:45:01;3.13;;;1.20;;
65315;SDS011;51920;53.952;10.292;2023-04-03T08:48:04;2.45;;;1.33;;
65315;SDS011;51920;53.952;10.292;2023-04-03T08:50:36;3.72;;;1.60;;
65315;SDS011;51920;53.952;10.292;2023-04-03T08:53:10;2.85;;;1.40;;
65315;SDS011;51920;53.952;10.292;2023-04-03T08:55:48;3.03;;;1.70;;
65315;SDS011;51920;53.952;10.292;2023-04-03T08:58:20;1.88;;;1.20;;
65315;SDS011;51920;53.952;10.292;2023-04-03T09:03:49;3.15;;;1.10;;
65315;SDS011;51920;53.952;10.292;2023-04-03T09:06:20;1.92;;;1.20;;
65315;SDS011;51920;53.952;10.292;2023-04-03T09:08:51;2.33;;;1.30;;
65315;SDS011;51920;53.952;10.292;2023-04-03T09:11:31;2.80;;;1.30;;
65315;SDS011;51920;53.952;10.292;2023-04-03T09:14:07;4.00;;;1.50;;
65315;SDS011;51920;53.952;10.292;2023-04-03T09:16:52;4.57;;;1.30;;
65315;SDS011;51920;53.952;10.292;2023-04-03T09:22:27;2.57;;;1.37;;
65315;SDS011;51920;53.952;10.292;2023-04-03T09:25:03;3.15;;;1.40;;
65315;SDS011;51920;53.952;10.292;2023-04-03T09:27:36;2.30;;;1.70;;
65315;SDS011;51920;53.952;10.292;2023-04-03T09:30:03;3.15;;;1.58;;
65315;SDS011;51920;53.952;10.292;2023-04-03T09:32:31;3.95;;;1.40;;
65315;SDS011;51920;53.952;10.292;2023-04-03T09:35:19;3.53;;;1.30;;
65315;SDS011;51920;53.952;10.292;2023-04-03T09:37:51;2.83;;;1.35;;
65315;SDS011;51920;53.952;10.292;2023-04-03T09:42:52;2.50;;;1.30;;
65315;SDS011;51920;53.952;10.292;2023-04-03T09:48:05;2.17;;;1.47;;
65315;SDS011;51920;53.952;10.292;2023-04-03T09:53:26;3.45;;;1.60;;
65315;SDS011;51920;53.952;10.292;2023-04-03T09:58:46;2.58;;;1.35;;
65315;SDS011;51920;53.952;10.292;2023-04-03T10:01:36;1.83;;;1.20;;
65315;SDS011;51920;53.952;10.292;2023-04-03T10:04:17;2.13;;;1.30;;
65315;SDS011;51920;53.952;10.292;2023-04-03T10:06:47;3.88;;;1.85;;
65315;SDS011;51920;53.952;10.292;2023-04-03T10:09:22;3.13;;;1.33;;
65315;SDS011;51920;53.952;10.292;2023-04-03T10:14:24;5.83;;;1.40;;
65315;SDS011;51920;53.952;10.292;2023-04-03T10:16:53;2.55;;;1.20;;
65315;SDS011;51920;53.952;10.292;2023-04-03T10:22:12;2.70;;;1.20;;
65315;SDS011;51920;53.952;10.292;2023-04-03T10:25:12;1.70;;;1.40;;
65315;SDS011;51920;53.952;10.292;2023-04-03T10:27:55;2.27;;;1.43;;
65315;SDS011;51920;53.952;10.292;2023-04-03T10:38:53;4.13;;;1.90;;
65315;SDS011;51920;53.952;10.292;2023-04-03T10:41:54;2.57;;;1.57;;
65315;SDS011;51920;53.952;10.292;2023-04-03T10:47:16;5.00;;;1.80;;
65315;SDS011;51920;53.952;10.292;2023-04-03T10:57:51;3.35;;;1.60;;
65315;SDS011;51920;53.952;10.292;2023-04-03T11:00:21;2.28;;;1.38;;
65315;SDS011;51920;53.952;10.292;2023-04-03T11:02:59;2.72;;;1.70;;
65315;SDS011;51920;53.952;10.292;2023-04-03T11:05:31;3.58;;;1.42;;
65315;SDS011;51920;53.952;10.292;2023-04-03T11:10:58;2.45;;;1.38;;
65315;SDS011;51920;53.952;10.292;2023-04-03T11:13:33;3.53;;;1.50;;
65315;SDS011;51920;53.952;10.292;2023-04-03T11:16:02;2.38;;;1.30;;
65315;SDS011;51920;53.952;10.292;2023-04-03T11:21:47;2.50;;;1.47;;
65315;SDS011;51920;53.952;10.292;2023-04-03T11:24:24;3.25;;;1.50;;
65315;SDS011;51920;53.952;10.292;2023-04-03T11:26:53;4.35;;;1.67;;
65315;SDS011;51920;53.952;10.292;2023-04-03T11:29:23;3.63;;;1.45;;
65315;SDS011;51920;53.952;10.292;2023-04-03T11:35:00;2.13;;;1.40;;
65315;SDS011;51920;53.952;10.292;2023-04-03T11:37:37;4.43;;;1.20;;
65315;SDS011;51920;53.952;10.292;2023-04-03T11:42:46;3.83;;;1.40;;
65315;SDS011;51920;53.952;10.292;2023-04-03T11:47:54;3.83;;;1.33;;
65315;SDS011;51920;53.952;10.292;2023-04-03T11:50:57;3.58;;;1.42;;
65315;SDS011;51920;53.952;10.292;2023-04-03T11:58:22;3.05;;;1.33;;
65315;SDS011;51920;53.952;10.292;2023-04-03T12:00:54;4.23;;;1.30;;
65315;SDS011;51920;53.952;10.292;2023-04-03T12:05:57;2.03;;;1.40;;
65315;SDS011;51920;53.952;10.292;2023-04-03T12:16:22;2.78;;;1.45;;
65315;SDS011;51920;53.952;10.292;2023-04-03T12:19:01;2.85;;;1.50;;
65315;SDS011;51920;53.952;10.292;2023-04-03T12:26:43;3.77;;;1.63;;
65315;SDS011;51920;53.952;10.292;2023-04-03T12:29:19;2.42;;;1.40;;
65315;SDS011;51920;53.952;10.292;2023-04-03T12:32:40;3.53;;;1.70;;
65315;SDS011;51920;53.952;10.292;2023-04-03T12:37:40;2.97;;;1.35;;
65315;SDS011;51920;53.952;10.292;2023-04-03T12:40:26;2.97;;;1.40;;
65315;SDS011;51920;53.952;10.292;2023-04-03T12:45:38;3.22;;;1.70;;
65315;SDS011;51920;53.952;10.292;2023-04-03T12:48:29;4.18;;;1.70;;
65315;SDS011;51920;53.952;10.292;2023-04-03T12:50:58;3.28;;;1.50;;
65315;SDS011;51920;53.952;10.292;2023-04-03T12:53:26;2.10;;;1.50;;
65315;SDS011;51920;53.952;10.292;2023-04-03T12:56:18;4.53;;;1.95;;
65315;SDS011;51920;53.952;10.292;2023-04-03T12:58:45;2.78;;;1.63;;
65315;SDS011;51920;53.952;10.292;2023-04-03T13:01:15;5.22;;;1.40;;
65315;SDS011;51920;53.952;10.292;2023-04-03T13:03:45;2.97;;;1.30;;
65315;SDS011;51920;53.952;10.292;2023-04-03T13:06:37;2.20;;;1.23;;
65315;SDS011;51920;53.952;10.292;2023-04-03T13:09:14;5.40;;;1.60;;
65315;SDS011;51920;53.952;10.292;2023-04-03T13:11:48;2.65;;;1.50;;
65315;SDS011;51920;53.952;10.292;2023-04-03T13:14:21;2.50;;;1.55;;
65315;SDS011;51920;53.952;10.292;2023-04-03T13:16:56;5.55;;;2.05;;
65315;SDS011;51920;53.952;10.292;2023-04-03T13:19:24;4.17;;;1.40;;
65315;SDS011;51920;53.952;10.292;2023-04-03T13:22:01;2.17;;;1.40;;
65315;SDS011;51920;53.952;10.292;2023-04-03T13:24:33;1.83;;;1.50;;
65315;SDS011;51920;53.952;10.292;2023-04-03T13:27:02;3.28;;;1.85;;
65315;SDS011;51920;53.952;10.292;2023-04-03T13:29:31;3.50;;;1.50;;
65315;SDS011;51920;53.952;10.292;2023-04-03T13:32:02;3.30;;;1.80;;
65315;SDS011;51920;53.952;10.292;2023-04-03T13:34:43;2.38;;;1.35;;
65315;SDS011;51920;53.952;10.292;2023-04-03T13:40:00;3.35;;;1.40;;
65315;SDS011;51920;53.952;10.292;2023-04-03T13:42:39;4.30;;;1.73;;
65315;SDS011;51920;53.952;10.292;2023-04-03T13:47:43;2.28;;;1.30;;
65315;SDS011;51920;53.952;10.292;2023-04-03T13:52:42;4.95;;;1.40;;
65315;SDS011;51920;53.952;10.292;2023-04-03T13:55:33;3.42;;;1.70;;
65315;SDS011;51920;53.952;10.292;2023-04-03T14:00:47;2.25;;;1.23;;
65315;SDS011;51920;53.952;10.292;2023-04-03T14:06:12;2.33;;;1.40;;
65315;SDS011;51920;53.952;10.292;2023-04-03T14:08:42;3.30;;;1.50;;
65315;SDS011;51920;53.952;10.292;2023-04-03T14:11:14;2.27;;;1.30;;
65315;SDS011;51920;53.952;10.292;2023-04-03T14:13:43;3.95;;;1.45;;
65315;SDS011;51920;53.952;10.292;2023-04-03T14:16:12;4.32;;;1.50;;
65315;SDS011;51920;53.952;10.292;2023-04-03T14:18:41;3.42;;;1.60;;
65315;SDS011;51920;53.952;10.292;2023-04-03T14:21:10;2.58;;;1.40;;
65315;SDS011;51920;53.952;10.292;2023-04-03T14:23:38;5.60;;;1.47;;
65315;SDS011;51920;53.952;10.292;2023-04-03T14:26:16;3.83;;;1.65;;
65315;SDS011;51920;53.952;10.292;2023-04-03T14:28:44;3.72;;;1.63;;
65315;SDS011;51920;53.952;10.292;2023-04-03T14:31:12;2.05;;;1.30;;
65315;SDS011;51920;53.952;10.292;2023-04-03T14:33:40;2.50;;;1.60;;
65315;SDS011;51920;53.952;10.292;2023-04-03T14:36:20;3.47;;;1.83;;
65315;SDS011;51920;53.952;10.292;2023-04-03T14:38:51;6.00;;;1.80;;
65315;SDS011;51920;53.952;10.292;2023-04-03T14:41:19;3.47;;;1.65;;
65315;SDS011;51920;53.952;10.292;2023-04-03T14:43:48;3.03;;;1.40;;
65315;SDS011;51920;53.952;10.292;2023-04-03T14:46:18;4.18;;;2.13;;
65315;SDS011;51920;53.952;10.292;2023-04-03T14:48:49;2.10;;;1.50;;
65315;SDS011;51920;53.952;10.292;2023-04-03T14:51:16;4.10;;;1.75;;
65315;SDS011;51920;53.952;10.292;2023-04-03T14:53:43;3.95;;;1.50;;
65315;SDS011;51920;53.952;10.292;2023-04-03T14:56:12;3.67;;;1.60;;
65315;SDS011;51920;53.952;10.292;2023-04-03T14:58:42;4.30;;;2.20;;
65315;SDS011;51920;53.952;10.292;2023-04-03T15:01:10;4.53;;;1.50;;
65315;SDS011;51920;53.952;10.292;2023-04-03T15:03:38;2.75;;;1.42;;
65315;SDS011;51920;53.952;10.292;2023-04-03T15:06:04;3.20;;;1.63;;
65315;SDS011;51920;53.952;10.292;2023-04-03T15:08:31;3.13;;;1.70;;
65315;SDS011;51920;53.952;10.292;2023-04-03T15:10:58;4.43;;;1.70;;
65315;SDS011;51920;53.952;10.292;2023-04-03T15:13:26;6.27;;;2.00;;
65315;SDS011;51920;53.952;10.292;2023-04-03T15:15:53;3.97;;;1.80;;
65315;SDS011;51920;53.952;10.292;2023-04-03T15:18:21;3.67;;;1.80;;
65315;SDS011;51920;53.952;10.292;2023-04-03T15:20:49;2.58;;;1.70;;
65315;SDS011;51920;53.952;10.292;2023-04-03T15:23:16;3.70;;;1.85;;
65315;SDS011;51920;53.952;10.292;2023-04-03T15:25:44;2.93;;;1.60;;
65315;SDS011;51920;53.952;10.292;2023-04-03T15:28:15;3.78;;;1.73;;
65315;SDS011;51920;53.952;10.292;2023-04-03T15:30:47;4.18;;;1.77;;
65315;SDS011;51920;53.952;10.292;2023-04-03T15:33:14;2.95;;;1.60;;
65315;SDS011;51920;53.952;10.292;2023-04-03T15:35:42;3.75;;;1.70;;
65315;SDS011;51920;53.952;10.292;2023-04-03T15:38:08;4.07;;;1.83;;
65315;SDS011;51920;53.952;10.292;2023-04-03T15:40:36;4.95;;;1.80;;
65315;SDS011;51920;53.952;10.292;2023-04-03T15:43:04;5.30;;;1.90;;
65315;SDS011;51920;53.952;10.292;2023-04-03T15:45:32;4.22;;;1.70;;
65315;SDS011;51920;53.952;10.292;2023-04-03T15:48:02;4.75;;;2.33;;
65315;SDS011;51920;53.952;10.292;2023-04-03T15:50:30;3.77;;;1.70;;
65315;SDS011;51920;53.952;10.292;2023-04-03T15:52:58;4.38;;;1.77;;
65315;SDS011;51920;53.952;10.292;2023-04-03T15:55:25;4.65;;;1.85;;
65315;SDS011;51920;53.952;10.292;2023-04-03T15:57:52;3.58;;;1.90;;
65315;SDS011;51920;53.952;10.292;2023-04-03T16:00:20;2.55;;;1.50;;
65315;SDS011;51920;53.952;10.292;2023-04-03T16:02:47;6.67;;;2.20;;
65315;SDS011;51920;53.952;10.292;2023-04-03T16:05:16;4.70;;;1.80;;
65315;SDS011;51920;53.952;10.292;2023-04-03T16:07:43;3.28;;;1.90;;
65315;SDS011;51920;53.952;10.292;2023-04-03T16:10:11;4.35;;;1.73;;
65315;SDS011;51920;53.952;10.292;2023-04-03T16:12:41;3.78;;;1.75;;
65315;SDS011;51920;53.952;10.292;2023-04-03T16:15:08;3.63;;;2.13;;
65315;SDS011;51920;53.952;10.292;2023-04-03T16:17:35;3.78;;;1.83;;
65315;SDS011;51920;53.952;10.292;2023-04-03T16:20:05;4.40;;;2.33;;
65315;SDS011;51920;53.952;10.292;2023-04-03T16:22:34;2.65;;;1.80;;
65315;SDS011;51920;53.952;10.292;2023-04-03T16:25:01;5.50;;;1.88;;
65315;SDS011;51920;53.952;10.292;2023-04-03T16:27:27;4.73;;;1.87;;
65315;SDS011;51920;53.952;10.292;2023-04-03T16:29:56;5.03;;;1.70;;
65315;SDS011;51920;53.952;10.292;2023-04-03T16:32:23;6.15;;;2.00;;
65315;SDS011;51920;53.952;10.292;2023-04-03T16:34:52;7.20;;;2.95;;
65315;SDS011;51920;53.952;10.292;2023-04-03T16:37:19;3.88;;;2.55;;
65315;SDS011;51920;53.952;10.292;2023-04-03T16:39:46;5.07;;;1.83;;